Time;durP1;ratioP1;P1;durP2;ratioP2;P2;SDS_P1;SDS_P2;PMS_P1;PMS_P2;Temp;Humidity;BMP_temperature;BMP_pressure;BME280_temperature;BME280_humidity;BME280_pressure;Samples;Min_cycle;Max_cycle;Signal;HPM_P1;HPM_P2
2021/01/22 00:00:40;;;;;;;4.13;1.30;;;;;;;8.00;100.00;97821.16;5021480;28;20358;-88
2021/01/22 00:03:05;;;;;;;4.95;1.10;;;;;;;7.99;100.00;97824.88;5032396;28;20398;-91
2021/01/22 00:05:31;;;;;;;2.00;1.02;;;;;;;7.99;100.00;97822.22;5032722;28;20063;-89
2021/01/22 00:07:56;;;;;;;2.50;1.15;;;;;;;7.99;100.00;97811.53;5017912;28;20497;-90
2021/01/22 00:10:22;;;;;;;4.65;1.17;;;;;;;8.00;100.00;97815.81;5012658;28;20034;-89
2021/01/22 00:12:47;;;;;;;3.95;1.02;;;;;;;7.99;100.00;97803.50;5026129;28;20048;-90
2021/01/22 00:15:13;;;;;;;3.40;0.98;;;;;;;7.99;100.00;97808.84;5024722;28;20254;-91
2021/01/22 00:17:38;;;;;;;2.33;0.85;;;;;;;7.99;100.00;97807.00;5010802;28;20087;-90
2021/01/22 00:20:05;;;;;;;3.28;0.70;;;;;;;8.03;100.00;97810.06;5031849;28;20118;-88
2021/01/22 00:22:30;;;;;;;5.50;1.30;;;;;;;8.07;100.00;97812.06;5030035;28;20041;-89
2021/01/22 00:24:56;;;;;;;2.22;1.00;;;;;;;8.09;100.00;97806.50;5048538;28;20044;-89
2021/01/22 00:27:21;;;;;;;4.00;1.05;;;;;;;8.09;100.00;97787.81;5030575;28;20127;-88
2021/01/22 00:29:46;;;;;;;3.17;1.00;;;;;;;8.07;100.00;97798.69;5023458;28;20396;-90
2021/01/22 00:32:13;;;;;;;3.72;1.23;;;;;;;8.08;100.00;97803.00;5041488;28;20050;-89
2021/01/22 00:34:38;;;;;;;5.53;1.48;;;;;;;8.09;100.00;97801.16;5007861;28;20041;-91
2021/01/22 00:37:04;;;;;;;4.90;1.13;;;;;;;8.07;100.00;97788.03;5023714;28;20040;-89
2021/01/22 00:39:29;;;;;;;5.50;1.52;;;;;;;8.09;100.00;97791.28;5044659;28;20036;-89
2021/01/22 00:41:54;;;;;;;3.20;1.10;;;;;;;8.11;100.00;97777.72;5029454;28;20395;-88
2021/01/22 00:44:20;;;;;;;2.42;0.90;;;;;;;8.12;100.00;97774.00;5042101;28;20045;-89
2021/01/22 00:46:45;;;;;;;4.57;1.17;;;;;;;8.14;100.00;97774.59;5026127;28;20041;-90
2021/01/22 00:49:11;;;;;;;2.42;0.85;;;;;;;8.14;100.00;97770.09;5031505;28;20049;-90
2021/01/22 00:51:37;;;;;;;1.73;0.70;;;;;;;8.13;100.00;97759.63;5023765;28;20049;-90
2021/01/22 00:54:06;;;;;;;2.15;0.80;;;;;;;8.13;100.00;97762.28;5029036;28;20055;-91
2021/01/22 00:56:31;;;;;;;3.17;0.90;;;;;;;8.11;100.00;97764.34;5022011;28;20040;-90
2021/01/22 00:58:56;;;;;;;3.33;0.77;;;;;;;8.11;100.00;97754.50;5031862;28;20116;-89
2021/01/22 01:01:22;;;;;;;2.45;0.73;;;;;;;8.13;100.00;97732.91;5048286;28;20047;-88
2021/01/22 01:03:55;;;;;;;3.15;0.88;;;;;;;8.12;100.00;97741.97;5025919;28;20123;-89
2021/01/22 01:06:20;;;;;;;3.10;0.80;;;;;;;8.11;100.00;97735.81;5021727;28;20033;-88
2021/01/22 01:08:46;;;;;;;2.75;0.80;;;;;;;8.07;100.00;97699.88;5024591;28;20391;-91
2021/01/22 01:11:11;;;;;;;1.55;0.60;;;;;;;8.05;100.00;97726.00;5015524;28;20120;-89
2021/01/22 01:13:37;;;;;;;1.88;0.75;;;;;;;8.04;100.00;97721.69;5029233;28;20041;-90
2021/01/22 01:16:02;;;;;;;3.08;1.00;;;;;;;8.02;100.00;97707.75;5047978;28;20418;-92
2021/01/22 01:18:28;;;;;;;1.95;0.90;;;;;;;8.02;100.00;97704.25;5030352;28;20451;-90
2021/01/22 01:20:54;;;;;;;4.07;0.93;;;;;;;8.03;100.00;97733.44;5030377;28;20045;-90
2021/01/22 01:23:20;;;;;;;3.92;1.10;;;;;;;7.83;100.00;97827.09;5025295;28;20042;-91
2021/01/22 01:25:46;;;;;;;3.42;1.30;;;;;;;6.75;100.00;97875.13;5044395;28;20052;-89
2021/01/22 01:28:12;;;;;;;2.42;1.20;;;;;;;6.05;100.00;97882.88;5027549;28;20045;-90
2021/01/22 01:30:39;;;;;;;2.67;1.40;;;;;;;5.65;100.00;97896.97;5047135;28;20044;-89
2021/01/22 01:33:06;;;;;;;2.63;1.05;;;;;;;5.30;100.00;97898.94;5018120;28;20045;-90
2021/01/22 01:35:33;;;;;;;2.30;1.50;;;;;;;5.13;100.00;97913.63;5047699;28;20448;-90
2021/01/22 01:38:00;;;;;;;2.40;1.70;;;;;;;4.91;100.00;97916.41;5029102;28;20094;-91
2021/01/22 01:40:25;;;;;;;2.95;1.95;;;;;;;4.79;100.00;97931.28;5028954;28;20048;-90
2021/01/22 01:42:52;;;;;;;3.40;2.10;;;;;;;4.72;100.00;97946.38;5027986;28;20567;-88
2021/01/22 01:45:18;;;;;;;3.15;1.95;;;;;;;4.63;100.00;97963.47;5044350;28;20045;-92
2021/01/22 01:47:44;;;;;;;3.67;2.20;;;;;;;4.59;100.00;97973.66;5026297;28;20708;-88
2021/01/22 01:50:11;;;;;;;3.45;2.22;;;;;;;4.50;100.00;97996.88;5030503;28;20033;-89
2021/01/22 01:52:37;;;;;;;2.70;2.03;;;;;;;4.39;100.00;98008.03;5013196;28;20041;-90
2021/01/22 01:55:09;;;;;;;2.50;1.70;;;;;;;4.27;100.00;98014.88;5040334;28;20037;-89
2021/01/22 01:57:35;;;;;;;2.47;2.00;;;;;;;4.16;100.00;98042.75;5019813;28;20037;-88
2021/01/22 02:00:03;;;;;;;2.78;1.73;;;;;;;4.10;100.00;98040.06;5030020;28;20398;-89
2021/01/22 02:02:29;;;;;;;2.85;2.00;;;;;;;4.02;100.00;98043.66;5031728;28;20587;-90
2021/01/22 02:04:55;;;;;;;1.88;0.88;;;;;;;3.89;100.00;98054.16;5029111;28;20045;-90
2021/01/22 02:07:21;;;;;;;1.52;0.80;;;;;;;3.72;100.00;98051.72;5030327;28;20045;-93
2021/01/22 02:09:49;;;;;;;1.45;0.80;;;;;;;3.59;100.00;98057.66;5031419;28;20136;-89
2021/01/22 02:12:18;;;;;;;1.13;0.60;;;;;;;3.43;100.00;98078.31;5033705;28;20041;-88
2021/01/22 02:14:46;;;;;;;1.35;0.70;;;;;;;3.35;100.00;98087.97;5032463;28;20067;-88
2021/01/22 02:17:12;;;;;;;3.00;1.02;;;;;;;3.25;100.00;98087.44;5007584;28;20044;-89
2021/01/22 02:19:52;;;;;;;1.85;1.00;;;;;;;3.18;100.00;98099.78;5024697;28;20053;-88
2021/01/22 02:22:19;;;;;;;1.80;0.90;;;;;;;3.22;100.00;98103.69;5030954;28;20512;-90
2021/01/22 02:24:46;;;;;;;2.83;1.30;;;;;;;3.17;100.00;98119.34;5028384;28;20112;-88
2021/01/22 02:27:16;;;;;;;2.20;1.33;;;;;;;3.13;100.00;98131.28;5024112;28;20041;-90
2021/01/22 02:29:48;;;;;;;2.92;1.60;;;;;;;3.09;100.00;98151.22;5032750;28;20510;-89
2021/01/22 02:32:17;;;;;;;2.20;1.30;;;;;;;3.14;100.00;98159.47;5027449;28;20067;-89
2021/01/22 02:34:44;;;;;;;2.13;1.30;;;;;;;3.12;100.00;98167.56;5048305;28;20033;-89
2021/01/22 02:37:17;;;;;;;2.17;1.42;;;;;;;3.05;100.00;98161.38;5033501;28;20438;-89
2021/01/22 02:39:47;;;;;;;2.65;1.27;;;;;;;3.00;100.00;98163.72;5029996;28;20068;-91
2021/01/22 02:42:15;;;;;;;2.35;1.45;;;;;;;3.02;100.00;98182.94;5024183;28;20549;-89
2021/01/22 02:44:40;;;;;;;2.40;1.50;;;;;;;3.01;100.00;98197.16;5024650;28;20045;-90
2021/01/22 02:47:08;;;;;;;2.72;1.80;;;;;;;3.06;100.00;98204.56;5017735;28;20083;-90
2021/01/22 02:49:36;;;;;;;2.80;2.10;;;;;;;3.09;100.00;98217.47;5032119;28;20052;-90
2021/01/22 02:52:14;;;;;;;3.28;2.13;;;;;;;3.06;100.00;98225.78;5033089;28;20045;-88
2021/01/22 02:54:41;;;;;;;4.28;3.20;;;;;;;3.11;100.00;98228.72;4985129;28;20077;-89
2021/01/22 02:57:13;;;;;;;3.63;2.38;;;;;;;3.07;100.00;98241.47;5001474;28;20037;-90
2021/01/22 02:59:47;;;;;;;5.47;3.33;;;;;;;3.05;100.00;98245.31;4996727;28;20092;-91
2021/01/22 03:02:23;;;;;;;4.47;3.10;;;;;;;3.06;100.00;98241.66;4998909;28;20053;-87
2021/01/22 03:04:51;;;;;;;4.55;3.50;;;;;;;3.11;100.00;98247.28;5008416;28;20080;-89
2021/01/22 03:07:29;;;;;;;5.53;3.78;;;;;;;3.10;100.00;98250.91;5007978;28;20681;-92
2021/01/22 03:09:59;;;;;;;5.25;3.38;;;;;;;3.10;100.00;98264.16;4997976;28;20555;-89
2021/01/22 03:12:28;;;;;;;5.82;4.20;;;;;;;3.10;100.00;98264.16;5012060;28;20041;-91
2021/01/22 03:14:57;;;;;;;6.38;4.25;;;;;;;3.14;100.00;98268.09;5010884;28;20046;-88
2021/01/22 03:17:22;;;;;;;5.85;4.20;;;;;;;3.15;100.00;98283.00;5004313;28;20188;-90
2021/01/22 03:19:56;;;;;;;8.80;4.78;;;;;;;3.15;100.00;98281.16;5009980;28;20042;-90
2021/01/22 03:22:22;;;;;;;6.38;4.55;;;;;;;3.13;100.00;98293.75;5009780;28;20049;-89
2021/01/22 03:24:47;;;;;;;6.22;3.78;;;;;;;3.12;100.00;98293.97;4991888;28;20427;-90
2021/01/22 03:27:16;;;;;;;6.40;4.40;;;;;;;3.21;100.00;98303.47;5029336;28;20036;-89
2021/01/22 03:29:42;;;;;;;7.57;5.20;;;;;;;3.18;100.00;98319.75;5032119;28;20045;-89
2021/01/22 03:32:09;;;;;;;8.30;4.28;;;;;;;3.16;100.00;98311.97;5030248;28;20088;-90
2021/01/22 03:34:35;;;;;;;7.95;5.47;;;;;;;3.20;100.00;98323.06;5028581;28;20116;-90
2021/01/22 03:37:04;;;;;;;8.43;6.05;;;;;;;3.23;100.00;98322.69;5028511;28;20064;-88
2021/01/22 03:39:35;;;;;;;;;;;;;;;3.22;100.00;98323.69;5032009;28;20111;-90
2021/01/22 03:42:05;;;;;;;6.50;4.50;;;;;;;3.13;100.00;98327.41;5031229;28;19928;-91
2021/01/22 03:44:31;;;;;;;7.15;5.32;;;;;;;3.19;100.00;98336.47;5031985;28;20458;-91
2021/01/22 03:46:57;;;;;;;8.00;4.97;;;;;;;3.20;100.00;98346.09;5033227;28;20558;-89
2021/01/22 03:49:23;;;;;;;10.38;7.00;;;;;;;3.24;100.00;98340.22;5030328;28;20522;-91
2021/01/22 03:51:49;;;;;;;9.98;6.93;;;;;;;3.29;100.00;98345.00;5029359;28;20049;-91
2021/01/22 03:54:14;;;;;;;8.88;6.85;;;;;;;3.28;100.00;98359.25;5002918;28;20044;-93
2021/01/22 03:56:42;;;;;;;10.65;6.82;;;;;;;3.29;100.00;98351.13;5030412;28;20056;-89
2021/01/22 03:59:07;;;;;;;9.85;6.72;;;;;;;3.27;100.00;98353.13;5031942;28;20135;-91
2021/01/22 04:01:33;;;;;;;10.18;6.88;;;;;;;3.29;100.00;98350.31;5029290;28;20215;-90
2021/01/22 04:03:58;;;;;;;11.25;6.85;;;;;;;3.28;100.00;98372.50;5021495;28;20068;-90
2021/01/22 04:06:23;;;;;;;10.55;7.15;;;;;;;3.28;100.00;98372.50;5021186;28;20048;-91
2021/01/22 04:08:51;;;;;;;13.35;8.95;;;;;;;3.33;100.00;98365.69;5009413;28;20045;-89
2021/01/22 04:11:17;;;;;;;13.88;9.90;;;;;;;3.32;100.00;98374.63;5029423;28;20399;-89
2021/01/22 04:13:44;;;;;;;15.07;10.68;;;;;;;3.35;100.00;98392.84;5020498;28;20087;-90
2021/01/22 04:16:12;;;;;;;17.85;10.35;;;;;;;3.32;100.00;98385.25;5032311;28;20036;-91
2021/01/22 04:18:38;;;;;;;15.82;11.38;;;;;;;3.31;100.00;98399.50;5023751;28;20041;-89
2021/01/22 04:21:04;;;;;;;16.13;10.43;;;;;;;3.30;100.00;98397.03;5032401;28;20033;-89
2021/01/22 04:23:31;;;;;;;20.92;12.88;;;;;;;3.29;100.00;98429.84;5032076;28;20182;-90
2021/01/22 04:25:57;;;;;;;19.25;14.18;;;;;;;3.31;100.00;98419.88;5031398;28;20506;-89
2021/01/22 04:28:25;;;;;;;21.15;14.05;;;;;;;3.31;100.00;98423.38;5012590;28;20047;-90
2021/01/22 04:30:51;;;;;;;19.90;13.82;;;;;;;3.30;100.00;98419.03;5046781;28;20053;-88
2021/01/22 04:33:16;;;;;;;23.65;14.52;;;;;;;3.27;100.00;98424.69;5031503;28;20048;-90
2021/01/22 04:35:41;;;;;;;19.67;13.43;;;;;;;3.27;100.00;98416.75;5026299;28;20044;-89
2021/01/22 04:38:07;;;;;;;20.10;14.45;;;;;;;3.32;100.00;98419.72;5024980;28;20084;-88
2021/01/22 04:40:34;;;;;;;18.60;11.65;;;;;;;3.27;100.00;98429.19;5028256;28;20044;-89
2021/01/22 04:43:00;;;;;;;21.55;15.20;;;;;;;3.29;100.00;98430.66;5013024;28;20500;-89
2021/01/22 04:45:25;;;;;;;19.48;11.93;;;;;;;3.27;100.00;98419.41;5007247;28;20056;-89
2021/01/22 04:47:52;;;;;;;19.80;14.05;;;;;;;3.27;100.00;98430.00;5029173;28;20434;-90
2021/01/22 04:50:18;;;;;;;20.42;14.38;;;;;;;3.27;100.00;98427.34;5031978;28;20029;-89
2021/01/22 04:52:45;;;;;;;19.73;14.18;;;;;;;3.26;100.00;98433.66;5030885;28;20098;-90
2021/01/22 04:55:14;;;;;;;20.02;14.15;;;;;;;3.25;100.00;98434.69;5030515;28;20434;-91
2021/01/22 04:57:45;;;;;;;20.00;14.10;;;;;;;3.20;100.00;98431.72;5047647;28;20033;-88
2021/01/22 05:00:13;;;;;;;22.00;13.65;;;;;;;3.17;100.00;98440.84;5030118;28;20094;-89
2021/01/22 05:02:39;;;;;;;20.73;15.20;;;;;;;3.15;100.00;98426.94;5026611;28;20103;-90
2021/01/22 05:05:07;;;;;;;23.45;16.63;;;;;;;3.12;100.00;98442.34;5030772;28;20252;-90
2021/01/22 05:07:33;;;;;;;22.40;14.13;;;;;;;3.10;100.00;98444.34;5030243;28;20495;-88
2021/01/22 05:09:58;;;;;;;23.45;15.48;;;;;;;3.15;100.00;98452.59;5024952;28;20094;-88
2021/01/22 05:12:35;;;;;;;21.52;16.42;;;;;;;3.13;100.00;98444.00;5031600;28;20123;-88
2021/01/22 05:15:20;;;;;;;21.40;15.25;;;;;;;3.13;100.00;98441.34;5043350;28;20038;-89
2021/01/22 05:17:56;;;;;;;22.25;16.40;;;;;;;3.06;100.00;98448.34;5026571;28;20655;-90
2021/01/22 05:20:33;;;;;;;23.48;17.23;;;;;;;3.09;100.00;98453.31;5022743;28;20045;-89
2021/01/22 05:22:59;;;;;;;22.48;15.43;;;;;;;3.07;100.00;98450.00;4990777;28;20060;-91
2021/01/22 05:25:26;;;;;;;25.17;17.23;;;;;;;3.07;100.00;98456.13;5049498;28;20044;-90
2021/01/22 05:27:56;;;;;;;22.92;17.75;;;;;;;3.10;100.00;98457.59;5028865;28;20063;-90
2021/01/22 05:30:29;;;;;;;25.10;14.10;;;;;;;3.06;100.00;98461.59;5031237;28;20041;-90
2021/01/22 05:33:16;;;;;;;23.92;14.75;;;;;;;3.06;100.00;98458.97;5043937;28;20045;-88
2021/01/22 05:35:42;;;;;;;22.30;15.23;;;;;;;3.08;100.00;98457.78;5029461;28;20029;-89
2021/01/22 05:38:14;;;;;;;23.73;16.10;;;;;;;3.07;100.00;98466.72;5023759;28;20045;-90
2021/01/22 05:40:49;;;;;;;21.23;16.02;;;;;;;3.07;100.00;98479.16;5027125;28;20048;-89
2021/01/22 05:43:15;;;;;;;25.42;17.40;;;;;;;3.12;100.00;98480.28;5015349;28;20096;-89
2021/01/22 05:45:45;;;;;;;21.98;13.98;;;;;;;3.14;100.00;98478.28;5030096;28;20029;-88
2021/01/22 05:48:20;;;;;;;25.50;17.42;;;;;;;3.19;100.00;98484.88;5045995;28;20072;-91
2021/01/22 05:50:57;;;;;;;23.13;17.10;;;;;;;3.23;100.00;98487.03;5029601;28;20033;-90
2021/01/22 05:53:23;;;;;;;22.77;14.23;;;;;;;3.25;100.00;98485.03;5030329;28;20064;-90
2021/01/22 05:56:17;;;;;;;27.58;16.00;;;;;;;3.28;100.00;98495.28;5032259;28;20045;-88
2021/01/22 05:58:50;;;;;;;26.52;16.55;;;;;;;3.28;100.00;98490.00;5026135;28;20033;-87
2021/01/22 06:01:16;;;;;;;25.27;15.32;;;;;;;3.27;100.00;98498.09;5034126;28;20446;-88
2021/01/22 06:03:45;;;;;;;27.23;17.23;;;;;;;3.30;100.00;98498.56;5030555;28;20048;-90
2021/01/22 06:06:11;;;;;;;25.70;16.40;;;;;;;3.26;100.00;98499.94;5004825;28;20053;-88
2021/01/22 06:08:48;;;;;;;29.00;18.17;;;;;;;3.28;100.00;98520.94;5041828;28;20057;-91
2021/01/22 06:11:29;;;;;;;31.27;20.23;;;;;;;3.30;100.00;98513.66;5035169;28;20063;-87
2021/01/22 06:13:56;;;;;;;31.85;22.30;;;;;;;3.28;100.00;98521.81;5031835;28;20064;-90
2021/01/22 06:16:25;;;;;;;31.92;21.75;;;;;;;3.29;100.00;98515.50;5034469;28;20087;-88
2021/01/22 06:19:01;;;;;;;34.38;21.55;;;;;;;3.29;100.00;98520.78;5033057;28;20065;-91
2021/01/22 06:22:03;;;;;;;29.73;20.20;;;;;;;3.27;100.00;98514.81;5033453;28;20045;-88
2021/01/22 06:24:29;;;;;;;29.75;19.52;;;;;;;3.26;100.00;98533.56;5004207;28;20037;-89
2021/01/22 06:26:56;;;;;;;32.95;22.75;;;;;;;3.27;100.00;98532.56;5029893;28;20048;-90
2021/01/22 06:29:28;;;;;;;32.17;20.55;;;;;;;3.30;100.00;98529.56;5011754;28;20069;-88
2021/01/22 06:31:55;;;;;;;34.72;20.42;;;;;;;3.30;100.00;98543.63;5026451;28;20621;-91
2021/01/22 06:34:21;;;;;;;35.08;24.33;;;;;;;3.31;100.00;98531.19;5042875;28;20049;-90
2021/01/22 06:36:48;;;;;;;35.40;24.15;;;;;;;3.31;100.00;98542.66;5040912;28;20040;-90
2021/01/22 06:39:14;;;;;;;35.72;21.77;;;;;;;3.34;100.00;98533.53;5029246;28;20053;-88
2021/01/22 06:41:41;;;;;;;34.42;23.30;;;;;;;3.34;100.00;98537.00;5016395;28;20067;-89
2021/01/22 06:44:07;;;;;;;35.78;20.38;;;;;;;3.33;100.00;98551.25;5028549;28;20728;-89
2021/01/22 06:46:34;;;;;;;33.13;23.50;;;;;;;3.34;100.00;98546.78;5008714;28;20097;-89
2021/01/22 06:49:05;;;;;;;31.38;20.52;;;;;;;3.33;100.00;98540.63;5023843;28;20037;-92
2021/01/22 06:51:44;;;;;;;36.10;22.00;;;;;;;3.34;100.00;98549.44;5026838;28;20411;-88
2021/01/22 06:54:16;;;;;;;34.80;22.02;;;;;;;3.33;100.00;98550.44;5029153;28;20183;-89
2021/01/22 06:56:51;;;;;;;31.10;19.17;;;;;;;3.33;100.00;98553.06;5046143;28;20041;-89
2021/01/22 07:02:03;;;;;;;31.55;22.38;;;;;;;3.32;100.00;98560.22;5024830;28;20033;-88
2021/01/22 07:04:38;;;;;;;30.30;17.30;;;;;;;3.35;100.00;98562.50;5023810;28;20053;-89
2021/01/22 07:07:05;;;;;;;31.17;19.52;;;;;;;3.36;100.00;98560.69;5029428;28;20090;-88
2021/01/22 07:09:40;;;;;;;33.70;20.70;;;;;;;3.39;100.00;98569.13;4997812;28;20098;-89
2021/01/22 07:12:37;;;;;;;33.58;21.38;;;;;;;3.40;100.00;98577.91;5031470;28;20120;-90
2021/01/22 07:15:35;;;;;;;32.75;22.90;;;;;;;3.42;100.00;98591.81;5013109;28;20045;-89
2021/01/22 07:18:01;;;;;;;31.33;18.08;;;;;;;3.38;100.00;98595.81;4976580;28;20042;-89
2021/01/22 07:20:29;;;;;;;35.38;23.25;;;;;;;3.43;100.00;98582.88;5030773;28;20037;-92
2021/01/22 07:23:00;;;;;;;37.10;23.10;;;;;;;3.45;100.00;98594.13;5027940;28;20061;-89
2021/01/22 07:25:54;;;;;;;35.25;22.30;;;;;;;3.45;100.00;98598.59;5025452;28;20037;-90
2021/01/22 07:28:23;;;;;;;36.08;24.42;;;;;;;3.45;100.00;98596.75;5012883;28;20517;-90
2021/01/22 07:30:48;;;;;;;35.85;23.48;;;;;;;3.44;100.00;98613.69;5012584;28;20092;-89
2021/01/22 07:33:26;;;;;;;38.10;24.52;;;;;;;3.46;100.00;98603.75;5029535;28;20494;-90
2021/01/22 07:36:19;;;;;;;34.97;21.55;;;;;;;3.47;100.00;98608.03;5029947;28;20491;-89
2021/01/22 07:39:14;;;;;;;36.50;24.30;;;;;;;3.49;100.00;98613.19;5032327;28;20048;-92
2021/01/22 07:41:47;;;;;;;34.15;21.73;;;;;;;3.48;100.00;98619.47;5028056;28;20582;-89
2021/01/22 07:44:28;;;;;;;35.90;21.65;;;;;;;3.47;100.00;98617.81;5027355;28;20402;-88
2021/01/22 07:46:55;;;;;;;37.90;20.55;;;;;;;3.50;100.00;98620.13;5030951;28;20049;-89
2021/01/22 07:49:52;;;;;;;33.97;23.77;;;;;;;3.50;100.00;98620.94;5014997;28;20515;-90
2021/01/22 07:52:18;;;;;;;36.40;25.65;;;;;;;3.51;100.00;98624.41;5029442;28;20025;-92
2021/01/22 07:54:52;;;;;;;37.60;21.65;;;;;;;3.51;100.00;98624.41;5021281;28;20048;-89
2021/01/22 07:57:33;;;;;;;36.13;22.35;;;;;;;3.54;100.00;98637.34;5025520;28;20052;-89
2021/01/22 08:00:06;;;;;;;34.80;19.50;;;;;;;3.57;100.00;98639.66;5025437;28;20089;-88
2021/01/22 08:02:32;;;;;;;33.60;19.30;;;;;;;3.55;100.00;98637.19;5026043;28;20106;-89
2021/01/22 08:04:59;;;;;;;34.72;23.63;;;;;;;3.55;100.00;98642.47;5030606;28;20045;-91
2021/01/22 08:07:39;;;;;;;35.35;23.73;;;;;;;3.59;100.00;98638.47;5041161;28;20036;-90
2021/01/22 08:10:10;;;;;;;40.80;24.15;;;;;;;3.59;100.00;98637.66;5009844;28;20037;-89
2021/01/22 08:12:36;;;;;;;34.97;22.45;;;;;;;3.58;100.00;98636.00;5018287;28;20076;-91
2021/01/22 08:15:16;;;;;;;35.20;19.50;;;;;;;3.59;100.00;98630.53;5010286;28;20048;-89
2021/01/22 08:17:43;;;;;;;43.97;25.05;;;;;;;3.66;100.00;98635.16;5022779;28;20042;-88
2021/01/22 08:20:10;;;;;;;40.83;19.92;;;;;;;3.60;100.00;98641.97;5025177;28;20047;-89
2021/01/22 08:22:35;;;;;;;30.05;19.50;;;;;;;3.60;100.00;98636.69;5005020;28;20064;-90
2021/01/22 08:25:01;;;;;;;34.55;22.95;;;;;;;3.60;100.00;98653.41;5009382;28;20041;-88
2021/01/22 08:27:26;;;;;;;38.22;19.88;;;;;;;3.64;100.00;98658.38;5027826;28;20044;-88
2021/01/22 08:29:52;;;;;;;32.88;20.35;;;;;;;3.65;100.00;98660.84;5006509;28;20071;-89
2021/01/22 08:32:18;;;;;;;33.25;19.60;;;;;;;3.67;100.00;98660.69;5023551;28;20041;-90
2021/01/22 08:34:45;;;;;;;33.00;19.70;;;;;;;3.69;100.00;98672.78;5024528;28;20036;-89
2021/01/22 08:37:11;;;;;;;34.65;19.02;;;;;;;3.71;100.00;98670.78;5040637;28;20033;-91
2021/01/22 08:39:58;;;;;;;32.22;16.90;;;;;;;3.67;100.00;98669.44;5027456;28;20048;-91
2021/01/22 08:42:28;;;;;;;31.95;17.00;;;;;;;3.65;100.00;98671.44;5023411;28;20086;-91
2021/01/22 08:45:02;;;;;;;29.67;17.27;;;;;;;3.65;100.00;98674.09;5005250;28;20495;-88
2021/01/22 08:47:30;;;;;;;30.92;20.73;;;;;;;3.69;100.00;98687.88;5023229;28;20523;-90
2021/01/22 08:50:00;;;;;;;32.10;19.52;;;;;;;3.72;100.00;98696.31;5016598;28;20739;-90
2021/01/22 08:52:28;;;;;;;37.03;18.35;;;;;;;3.72;100.00;98688.34;5028222;28;20044;-90
2021/01/22 08:54:56;;;;;;;32.53;20.25;;;;;;;3.75;100.00;98701.25;5042610;28;20045;-89
2021/01/22 08:57:23;;;;;;;32.35;19.88;;;;;;;3.78;100.00;98689.47;5041550;28;20045;-91
2021/01/22 08:59:58;;;;;;;33.38;20.00;;;;;;;3.78;100.00;98692.97;5021127;28;20037;-88
2021/01/22 09:02:44;;;;;;;32.08;18.08;;;;;;;3.80;100.00;98695.44;5025763;28;20056;-90
2021/01/22 09:05:19;;;;;;;32.65;20.38;;;;;;;3.82;100.00;98698.75;5001247;28;20500;-87
2021/01/22 09:07:46;;;;;;;29.50;16.95;;;;;;;3.81;100.00;98700.56;5023348;28;20073;-89
2021/01/22 09:10:23;;;;;;;30.40;19.50;;;;;;;3.87;100.00;98700.88;5018099;28;20102;-88
2021/01/22 09:13:08;;;;;;;29.02;17.45;;;;;;;3.89;100.00;98698.91;5037077;28;20052;-90
2021/01/22 09:15:34;;;;;;;29.38;18.15;;;;;;;3.92;100.00;98704.69;5042200;28;20036;-89
2021/01/22 09:17:59;;;;;;;27.08;18.75;;;;;;;3.96;100.00;98716.59;5029601;28;20033;-90
2021/01/22 09:20:26;;;;;;;29.48;18.45;;;;;;;3.99;100.00;98715.41;5031845;28;20041;-88
2021/01/22 09:22:54;;;;;;;27.17;17.45;;;;;;;4.02;100.00;98709.75;5028401;28;20442;-92
2021/01/22 09:25:23;;;;;;;31.45;18.20;;;;;;;4.06;100.00;98721.72;5021836;28;20044;-90
2021/01/22 09:27:50;;;;;;;;;;;;;;;4.11;100.00;98729.97;5028955;28;20045;-90
2021/01/22 09:30:24;;;;;;;24.95;15.32;;;;;;;4.15;100.00;98731.28;5031432;28;19912;-89
2021/01/22 09:32:55;;;;;;;22.48;13.48;;;;;;;4.17;100.00;98736.41;5035434;28;20402;-91
2021/01/22 09:35:22;;;;;;;24.95;14.38;;;;;;;4.24;100.00;98754.13;5031114;28;20040;-92
2021/01/22 09:37:53;;;;;;;25.65;15.02;;;;;;;4.40;100.00;98749.72;5032329;28;20048;-91
2021/01/22 09:40:20;;;;;;;23.80;14.38;;;;;;;4.40;100.00;98749.72;5028658;28;20033;-89
2021/01/22 09:42:46;;;;;;;24.20;16.42;;;;;;;4.43;100.00;98752.88;5023595;28;20442;-88
2021/01/22 09:45:14;;;;;;;20.20;10.98;;;;;;;4.40;100.00;98763.00;5029384;28;20107;-88
2021/01/22 09:47:39;;;;;;;25.80;15.07;;;;;;;4.43;100.00;98762.66;5042802;28;20043;-90
2021/01/22 09:50:07;;;;;;;23.20;13.27;;;;;;;4.41;100.00;98768.16;5019383;28;20034;-88
2021/01/22 09:52:36;;;;;;;23.23;15.57;;;;;;;4.41;100.00;98759.38;5020111;28;20403;-89
2021/01/22 09:55:03;;;;;;;22.27;14.52;;;;;;;4.45;100.00;98768.63;5027420;28;20041;-88
2021/01/22 09:57:30;;;;;;;17.85;11.35;;;;;;;4.42;100.00;98784.91;5029295;28;20044;-91
2021/01/22 09:59:56;;;;;;;20.90;12.57;;;;;;;4.40;100.00;98773.63;5025620;28;20046;-88
2021/01/22 10:02:24;;;;;;;25.67;16.30;;;;;;;4.40;100.00;98792.22;5011317;28;20450;-89
2021/01/22 10:04:49;;;;;;;23.20;14.82;;;;;;;4.41;100.00;98783.28;5008659;28;20119;-90
2021/01/22 10:07:14;;;;;;;24.35;14.05;;;;;;;4.42;100.00;98790.22;5040328;28;20037;-89
2021/01/22 10:09:42;;;;;;;21.15;14.98;;;;;;;4.42;100.00;98796.38;5011633;28;20033;-90
2021/01/22 10:12:10;;;;;;;22.83;11.90;;;;;;;4.38;100.00;98800.38;5024231;28;20045;-88
2021/01/22 10:14:36;;;;;;;20.42;11.10;;;;;;;4.42;100.00;98803.50;5027005;28;20033;-90
2021/01/22 10:17:33;;;;;;;20.77;12.60;;;;;;;4.45;100.00;98811.13;5030929;28;20033;-89
2021/01/22 10:20:03;;;;;;;21.10;14.98;;;;;;;4.50;100.00;98809.59;5024474;28;20392;-91
2021/01/22 10:22:37;;;;;;;23.98;14.05;;;;;;;4.51;100.00;98799.81;5032604;28;20124;-92
2021/01/22 10:25:05;;;;;;;24.45;14.20;;;;;;;4.54;100.00;98812.75;5014898;28;20041;-90
2021/01/22 10:27:30;;;;;;;20.23;12.25;;;;;;;4.52;100.00;98806.78;4972705;28;20621;-90
2021/01/22 10:29:58;;;;;;;23.70;13.55;;;;;;;4.56;100.00;98808.09;4970479;28;20111;-90
2021/01/22 10:32:23;;;;;;;22.98;12.63;;;;;;;4.63;100.00;98809.06;4982868;28;20101;-89
2021/01/22 10:34:49;;;;;;;28.05;12.93;;;;;;;4.67;100.00;98809.53;4968940;28;20057;-91
2021/01/22 10:37:14;;;;;;;18.17;10.52;;;;;;;4.76;100.00;98800.50;4954404;28;20038;-89
2021/01/22 10:39:39;;;;;;;21.75;12.88;;;;;;;4.83;100.00;98825.34;4937905;28;20130;-90
2021/01/22 10:42:05;;;;;;;19.23;12.30;;;;;;;4.85;100.00;98823.38;4959012;28;20129;-89
2021/01/22 10:44:33;;;;;;;22.63;12.30;;;;;;;4.90;100.00;98814.88;4967737;28;20061;-90
2021/01/22 10:46:59;;;;;;;22.65;14.00;;;;;;;4.95;100.00;98828.47;4967194;28;20050;-89
2021/01/22 10:49:25;;;;;;;21.15;12.88;;;;;;;4.97;100.00;98845.06;4955193;28;20038;-89
2021/01/22 10:51:51;;;;;;;21.77;12.15;;;;;;;4.92;99.01;98834.97;4977580;28;20132;-89
2021/01/22 10:54:16;;;;;;;20.08;13.50;;;;;;;4.95;99.92;98845.25;5029842;28;20558;-91
2021/01/22 10:56:44;;;;;;;18.30;9.55;;;;;;;4.90;98.91;98846.78;5024381;28;20045;-91
2021/01/22 10:59:09;;;;;;;20.67;13.07;;;;;;;4.91;100.00;98846.59;5027568;28;20137;-89
2021/01/22 11:01:35;;;;;;;19.60;12.63;;;;;;;4.87;99.50;98855.09;5047455;28;20036;-92
2021/01/22 11:04:00;;;;;;;17.55;10.90;;;;;;;4.82;98.62;98879.53;5025713;28;20128;-91
2021/01/22 11:06:25;;;;;;;17.45;9.90;;;;;;;4.80;98.82;98857.59;5015247;28;20041;-91
2021/01/22 11:08:51;;;;;;;21.73;10.10;;;;;;;4.78;98.72;98856.16;5027328;28;20051;-90
2021/01/22 11:11:16;;;;;;;18.30;11.27;;;;;;;4.81;99.75;98853.97;5004841;28;20173;-90
2021/01/22 11:13:42;;;;;;;20.50;13.90;;;;;;;4.81;99.68;98853.13;5001840;28;20124;-91
2021/01/22 11:16:07;;;;;;;24.35;14.27;;;;;;;4.84;100.00;98858.09;4979182;28;20053;-91
2021/01/22 11:18:33;;;;;;;19.23;11.68;;;;;;;4.83;99.49;98859.91;4990790;28;20041;-91
2021/01/22 11:20:58;;;;;;;23.25;12.55;;;;;;;4.79;98.65;98855.97;4978248;28;20054;-91
2021/01/22 11:23:24;;;;;;;20.10;11.25;;;;;;;4.86;99.44;98866.72;4981122;28;20047;-88
2021/01/22 11:25:50;;;;;;;24.23;11.98;;;;;;;4.86;98.91;98867.56;4986861;28;20042;-89
2021/01/22 11:28:16;;;;;;;18.20;10.13;;;;;;;4.88;98.14;98859.41;4990888;28;20042;-89
2021/01/22 11:30:41;;;;;;;21.58;12.02;;;;;;;4.87;98.94;98863.91;4960057;28;20648;-89
2021/01/22 11:33:07;;;;;;;19.75;9.82;;;;;;;4.90;98.40;98870.69;4972231;28;20515;-90
2021/01/22 11:35:34;;;;;;;17.77;9.60;;;;;;;4.93;98.31;98876.47;4972260;28;20045;-91